createdAt,value
2019-05-19T00:01:33.896Z,96992.84
2019-05-19T00:04:02.190Z,96995.78
2019-05-19T00:06:30.559Z,96994.91
2019-05-19T00:08:58.888Z,96995.34
2019-05-19T00:11:27.179Z,96994.46
2019-05-19T00:13:55.504Z,96994.67
2019-05-19T00:16:23.870Z,96995.63
2019-05-19T00:18:52.237Z,97001.81
2019-05-19T00:21:20.569Z,97005.13
2019-05-19T00:23:48.872Z,96994.38
2019-05-19T00:26:17.185Z,96997.36
2019-05-19T00:28:45.612Z,96997.88
2019-05-19T00:31:13.862Z,97002.70
2019-05-19T00:33:42.334Z,97002.00
2019-05-19T00:36:10.915Z,96997.53
2019-05-19T00:38:39.247Z,96999.66
2019-05-19T00:41:07.612Z,97002.81
2019-05-19T00:43:36.005Z,97005.34
2019-05-19T00:46:04.657Z,96999.13
2019-05-19T00:48:33.334Z,97000.13
2019-05-19T00:51:01.701Z,97000.55
2019-05-19T00:53:30.409Z,97000.88
2019-05-19T00:55:59.741Z,97008.67
2019-05-19T00:58:28.601Z,97002.12
2019-05-19T01:00:56.901Z,96995.86
2019-05-19T01:03:25.676Z,96992.98
2019-05-19T01:05:53.997Z,97004.24
2019-05-19T01:08:22.354Z,97002.87
2019-05-19T01:10:50.836Z,96997.09
2019-05-19T01:13:19.139Z,97000.41
2019-05-19T01:15:47.468Z,96991.45
2019-05-19T01:18:15.832Z,96998.02
2019-05-19T01:20:44.304Z,96993.95
2019-05-19T01:23:12.627Z,96986.89
2019-05-19T01:25:40.987Z,96984.33
2019-05-19T01:28:09.313Z,96985.78
2019-05-19T01:30:37.601Z,96981.06
2019-05-19T01:33:05.988Z,96978.08
2019-05-19T01:35:34.355Z,96980.73
2019-05-19T01:38:03.019Z,96981.56
2019-05-19T01:40:31.411Z,96979.95
2019-05-19T01:42:59.772Z,96980.87
2019-05-19T01:45:28.158Z,96984.00
2019-05-19T01:47:56.466Z,96985.39
2019-05-19T01:50:24.778Z,96979.95
2019-05-19T01:52:53.085Z,96973.91
2019-05-19T01:55:21.581Z,96970.09
2019-05-19T01:57:49.868Z,96971.26
2019-05-19T02:00:18.937Z,96973.84
2019-05-19T02:02:47.240Z,96969.41
2019-05-19T02:05:15.651Z,96964.13
2019-05-19T02:07:44.031Z,96963.20
2019-05-19T02:10:12.425Z,96958.53
2019-05-19T02:12:41.082Z,96958.42
2019-05-19T02:15:11.238Z,96958.66
2019-05-19T02:17:40.002Z,96960.39
2019-05-19T02:20:09.648Z,96965.31
2019-05-19T02:22:38.004Z,96967.63
2019-05-19T02:25:06.710Z,96973.95
2019-05-19T02:27:35.044Z,96970.66
2019-05-19T02:30:05.369Z,96964.50
2019-05-19T02:32:33.687Z,96972.05
2019-05-19T02:35:01.999Z,96960.23
2019-05-19T02:37:30.291Z,96960.23
2019-05-19T02:39:58.679Z,96956.80
2019-05-19T02:42:28.525Z,96957.90
2019-05-19T02:44:58.944Z,96959.00
2019-05-19T02:47:28.280Z,96958.94
2019-05-19T02:49:57.675Z,96965.80
2019-05-19T02:52:27.341Z,96969.66
2019-05-19T02:54:56.512Z,96966.98
2019-05-19T02:57:24.962Z,96951.52
2019-05-19T02:59:53.651Z,96951.52
2019-05-19T03:02:22.339Z,96957.39
2019-05-19T03:04:50.732Z,96950.14
2019-05-19T03:07:19.049Z,96959.10
2019-05-19T03:09:47.372Z,96959.88
2019-05-19T03:12:15.667Z,96954.84
2019-05-19T03:14:44.037Z,96954.15
2019-05-19T03:17:12.354Z,96957.59
2019-05-19T03:19:40.776Z,96953.80
2019-05-19T03:22:09.178Z,96956.09
2019-05-19T03:24:37.466Z,96953.89
2019-05-19T03:27:05.964Z,96950.13
2019-05-19T03:29:35.901Z,96940.61
2019-05-19T03:32:12.362Z,96942.18
2019-05-19T03:34:38.929Z,96942.60
2019-05-19T03:37:07.226Z,96952.53
2019-05-19T03:39:35.542Z,96947.22
2019-05-19T03:42:04.331Z,96951.50
2019-05-19T03:44:32.736Z,96955.17
2019-05-19T03:47:01.048Z,96955.80
2019-05-19T03:49:29.675Z,96957.31
2019-05-19T03:51:57.996Z,96965.30
2019-05-19T03:54:26.362Z,96966.94
2019-05-19T03:56:54.684Z,96965.61
2019-05-19T03:59:22.981Z,96961.22
2019-05-19T04:01:51.292Z,96961.14
2019-05-19T04:04:19.584Z,96958.45
2019-05-19T04:06:47.907Z,96958.19
2019-05-19T04:09:17.426Z,96960.60
2019-05-19T04:11:46.152Z,96962.19
2019-05-19T04:14:14.927Z,96956.82
2019-05-19T04:16:43.513Z,96966.80
2019-05-19T04:19:11.828Z,96967.97
2019-05-19T04:21:48.810Z,96975.61
2019-05-19T04:24:10.170Z,96972.43
2019-05-19T04:26:38.466Z,96968.22
2019-05-19T04:29:06.867Z,96972.27
2019-05-19T04:31:35.158Z,96974.09
2019-05-19T04:34:04.058Z,96973.29
2019-05-19T04:36:32.382Z,96971.41
2019-05-19T04:39:00.681Z,96965.25
2019-05-19T04:41:29.072Z,96966.36
2019-05-19T04:43:58.212Z,96973.69
2019-05-19T04:46:26.953Z,96974.40
2019-05-19T04:48:55.238Z,96975.72
2019-05-19T04:51:23.575Z,96971.36
2019-05-19T04:53:51.911Z,96971.44
2019-05-19T04:56:20.211Z,96973.47
2019-05-19T04:58:48.540Z,96974.13
2019-05-19T05:01:16.834Z,96978.09
2019-05-19T05:03:45.257Z,96974.80
2019-05-19T05:06:13.916Z,96977.59
2019-05-19T05:08:42.329Z,96985.00
2019-05-19T05:11:10.687Z,96984.78
2019-05-19T05:13:39.368Z,96976.00
2019-05-19T05:16:07.724Z,96980.17
2019-05-19T05:18:36.437Z,96981.34
2019-05-19T05:21:04.845Z,96985.42
2019-05-19T05:23:33.213Z,96979.58
2019-05-19T05:26:01.540Z,96987.09
2019-05-19T05:28:29.849Z,96972.73
2019-05-19T05:30:58.183Z,96989.25
2019-05-19T05:33:26.482Z,96984.34
2019-05-19T05:35:54.783Z,96987.01
2019-05-19T05:38:23.120Z,96984.84
2019-05-19T05:40:51.416Z,96983.31
2019-05-19T05:43:20.048Z,96985.98
2019-05-19T05:45:48.416Z,96985.41
2019-05-19T05:48:16.730Z,96971.59
2019-05-19T05:50:45.024Z,96968.96
2019-05-19T05:53:14.715Z,96972.83
2019-05-19T05:55:43.083Z,96969.52
2019-05-19T05:58:11.389Z,96971.52
2019-05-19T06:00:39.707Z,96971.52
2019-05-19T06:03:08.240Z,96972.64
2019-05-19T06:05:36.583Z,96977.44
2019-05-19T06:08:05.019Z,96972.16
2019-05-19T06:10:33.352Z,96971.08
2019-05-19T06:13:01.716Z,96966.46
2019-05-19T06:15:30.356Z,96967.55
2019-05-19T06:17:58.842Z,96954.77
2019-05-19T06:20:27.136Z,96971.89
2019-05-19T06:22:57.112Z,96970.72
2019-05-19T06:25:25.778Z,96976.69
2019-05-19T06:27:54.204Z,96975.50
2019-05-19T06:30:22.573Z,96969.22
2019-05-19T06:32:52.522Z,96969.26
2019-05-19T06:35:21.025Z,96968.30
2019-05-19T06:37:49.335Z,96969.10
2019-05-19T06:40:17.921Z,96972.14
2019-05-19T06:42:46.268Z,96975.73
2019-05-19T06:45:16.536Z,96976.54
2019-05-19T06:47:45.133Z,96979.14
2019-05-19T06:50:14.295Z,96978.88
2019-05-19T06:52:42.604Z,96981.33
2019-05-19T06:55:11.237Z,96981.14
2019-05-19T06:57:39.670Z,96975.03
2019-05-19T07:00:08.312Z,96974.20
2019-05-19T07:02:36.789Z,96976.63
2019-05-19T07:05:09.047Z,96972.47
2019-05-19T07:07:37.512Z,96967.80
2019-05-19T07:10:09.131Z,96974.00
2019-05-19T07:12:37.507Z,96975.48
2019-05-19T07:15:06.574Z,96976.75
2019-05-19T07:17:34.887Z,96970.94
2019-05-19T07:20:04.043Z,96976.23
2019-05-19T07:22:36.934Z,96968.47
2019-05-19T07:25:02.586Z,96970.12
2019-05-19T07:27:30.883Z,96972.08
2019-05-19T07:29:59.221Z,96966.11
2019-05-19T07:32:27.520Z,96964.41
2019-05-19T07:34:56.179Z,96957.94
2019-05-19T07:37:25.438Z,96961.59
2019-05-19T07:39:54.068Z,96960.89
2019-05-19T07:42:22.798Z,96955.78
2019-05-19T07:44:51.101Z,96958.31
2019-05-19T07:47:19.527Z,96951.27
2019-05-19T07:49:47.851Z,96951.58
2019-05-19T07:52:16.247Z,96950.64
2019-05-19T07:54:44.551Z,96946.88
2019-05-19T07:57:12.900Z,96949.09
2019-05-19T07:59:41.260Z,96952.11
2019-05-19T08:02:09.574Z,96955.31
2019-05-19T08:04:37.974Z,96957.91
2019-05-19T08:07:06.373Z,96957.96
2019-05-19T08:09:34.707Z,96956.77
2019-05-19T08:12:03.106Z,96962.20
2019-05-19T08:14:31.530Z,96953.78
2019-05-19T08:17:00.195Z,96960.91
2019-05-19T08:19:28.587Z,96954.27
2019-05-19T08:21:56.961Z,96950.23
2019-05-19T08:24:25.463Z,96951.54
2019-05-19T08:26:53.788Z,96956.16
2019-05-19T08:29:22.100Z,96944.78
2019-05-19T08:31:50.505Z,96942.25
2019-05-19T08:34:18.799Z,96939.18
2019-05-19T08:36:47.179Z,96933.35
2019-05-19T08:39:15.471Z,96934.08
2019-05-19T08:41:43.789Z,96930.39
2019-05-19T08:44:12.190Z,96928.82
2019-05-19T08:46:40.521Z,96929.58
2019-05-19T08:49:08.883Z,96926.20
2019-05-19T08:51:37.195Z,96932.28
2019-05-19T08:54:14.298Z,96933.27
2019-05-19T08:56:35.629Z,96930.70
2019-05-19T08:59:04.334Z,96929.92
2019-05-19T09:01:32.700Z,96932.35
2019-05-19T09:04:01.400Z,96928.48
2019-05-19T09:06:29.696Z,96929.11
2019-05-19T09:08:57.994Z,96921.40
2019-05-19T09:11:26.322Z,96926.19
2019-05-19T09:13:54.618Z,96937.15
2019-05-19T09:16:23.113Z,96935.80
2019-05-19T09:18:51.413Z,96927.19
2019-05-19T09:21:19.775Z,96930.32
2019-05-19T09:23:48.100Z,96931.66
2019-05-19T09:26:16.402Z,96933.75
2019-05-19T09:28:44.808Z,96924.22
2019-05-19T09:31:13.110Z,96923.88
2019-05-19T09:33:41.428Z,96927.68
2019-05-19T09:36:09.733Z,96928.95
2019-05-19T09:38:38.148Z,96932.95
2019-05-19T09:41:06.524Z,96929.48
2019-05-19T09:43:34.919Z,96928.87
2019-05-19T09:46:03.285Z,96921.36
2019-05-19T09:48:31.539Z,96916.79
2019-05-19T09:51:00.255Z,96920.81
2019-05-19T09:53:28.548Z,96918.56
2019-05-19T09:55:56.937Z,96904.81
2019-05-19T09:58:25.303Z,96908.22
2019-05-19T10:00:53.686Z,96902.55
2019-05-19T10:03:22.003Z,96900.74
2019-05-19T10:05:50.293Z,96898.79
2019-05-19T10:08:24.192Z,96897.72
2019-05-19T10:11:13.110Z,96892.04
2019-05-19T10:13:41.408Z,96893.63
2019-05-19T10:16:10.087Z,96890.95
2019-05-19T10:18:38.387Z,96880.66
2019-05-19T10:21:06.692Z,96882.59
2019-05-19T10:23:35.529Z,96873.34
2019-05-19T10:26:03.826Z,96880.53
2019-05-19T10:28:32.342Z,96873.77
2019-05-19T10:31:00.697Z,96870.81
2019-05-19T10:33:29.079Z,96877.64
2019-05-19T10:35:57.387Z,96874.45
2019-05-19T10:38:25.817Z,96876.86
2019-05-19T10:40:54.501Z,96875.83
2019-05-19T10:43:22.851Z,96876.00
2019-05-19T10:45:52.924Z,96882.45
2019-05-19T10:48:21.232Z,96880.80
2019-05-19T10:50:49.769Z,96870.76
2019-05-19T10:53:18.724Z,96871.75
2019-05-19T10:55:47.060Z,96880.09
2019-05-19T10:58:15.402Z,96875.53
2019-05-19T11:00:43.721Z,96871.95
2019-05-19T11:03:12.021Z,96872.78
2019-05-19T11:05:40.338Z,96863.81
2019-05-19T11:08:08.656Z,96862.87
2019-05-19T11:10:37.021Z,96864.95
2019-05-19T11:13:05.339Z,96850.78
2019-05-19T11:15:33.716Z,96854.55
2019-05-19T11:18:02.038Z,96851.33
2019-05-19T11:20:30.398Z,96840.03
2019-05-19T11:22:58.736Z,96843.74
2019-05-19T11:25:33.834Z,96838.85
2019-05-19T11:27:57.435Z,96839.11
2019-05-19T11:30:25.789Z,96833.08
2019-05-19T11:32:54.119Z,96837.77
2019-05-19T11:35:22.610Z,96836.83
2019-05-19T11:37:50.977Z,96831.64
2019-05-19T11:40:19.339Z,96828.25
2019-05-19T11:42:48.039Z,96828.73
2019-05-19T11:45:16.408Z,96823.41
2019-05-19T11:47:44.730Z,96827.64
2019-05-19T11:50:13.098Z,96819.12
2019-05-19T11:52:41.777Z,96819.14
2019-05-19T11:55:10.154Z,96814.94
2019-05-19T11:57:38.476Z,96814.20
2019-05-19T12:00:07.313Z,96808.01
2019-05-19T12:02:35.643Z,96810.25
2019-05-19T12:05:05.733Z,96806.80
2019-05-19T12:07:34.025Z,96811.80
2019-05-19T12:10:02.705Z,96813.19
2019-05-19T12:12:30.987Z,96810.55
2019-05-19T12:14:59.312Z,96798.72
2019-05-19T12:17:27.653Z,96798.72
2019-05-19T12:19:55.984Z,96803.48
2019-05-19T12:22:24.289Z,96801.73
2019-05-19T12:24:53.080Z,96810.58
2019-05-19T12:27:21.369Z,96803.31
2019-05-19T12:29:49.686Z,96799.45
2019-05-19T12:32:18.297Z,96793.15
2019-05-19T12:34:46.574Z,96799.81
2019-05-19T12:37:15.202Z,96796.05
2019-05-19T12:39:43.793Z,96792.10
2019-05-19T12:42:12.199Z,96793.60
2019-05-19T12:44:40.576Z,96801.64
2019-05-19T12:47:08.862Z,96791.84
2019-05-19T12:49:37.214Z,96803.12
2019-05-19T12:52:05.602Z,96793.36
2019-05-19T12:54:34.027Z,96784.02
2019-05-19T12:57:02.394Z,96773.20
2019-05-19T12:59:30.685Z,96776.62
2019-05-19T13:01:59.170Z,96780.97
2019-05-19T13:04:27.482Z,96770.19
2019-05-19T13:06:55.918Z,96776.55
2019-05-19T13:09:24.215Z,96776.09
2019-05-19T13:11:52.610Z,96772.48
2019-05-19T13:14:21.333Z,96777.13
2019-05-19T13:16:49.729Z,96766.98
2019-05-19T13:19:18.084Z,96769.84
2019-05-19T13:21:46.376Z,96762.72
2019-05-19T13:24:14.695Z,96764.74
2019-05-19T13:26:55.638Z,96760.94
2019-05-19T13:29:13.033Z,96755.86
2019-05-19T13:31:41.328Z,96756.43
2019-05-19T13:34:09.633Z,96751.70
2019-05-19T13:36:40.270Z,96754.02
2019-05-19T13:39:08.346Z,96754.25
2019-05-19T13:41:36.817Z,96744.33
2019-05-19T13:44:05.182Z,96757.52
2019-05-19T13:46:33.506Z,96758.05
2019-05-19T13:49:01.799Z,96748.28
2019-05-19T13:51:30.208Z,96751.24
2019-05-19T13:53:58.581Z,96755.36
2019-05-19T13:56:26.935Z,96760.76
2019-05-19T13:58:55.322Z,96761.22
2019-05-19T14:01:28.513Z,96756.33
2019-05-19T14:03:53.834Z,96769.08
2019-05-19T14:06:22.090Z,96753.74
2019-05-19T14:08:50.403Z,96760.42
2019-05-19T14:11:18.705Z,96756.73
2019-05-19T14:13:47.074Z,96761.65
2019-05-19T14:16:15.376Z,96764.03
2019-05-19T14:18:43.896Z,96761.92
2019-05-19T14:21:12.211Z,96764.89
2019-05-19T14:23:41.328Z,96769.98
2019-05-19T14:26:09.667Z,96767.38
2019-05-19T14:28:37.979Z,96765.02
2019-05-19T14:31:06.460Z,96763.04
2019-05-19T14:33:34.762Z,96757.47
2019-05-19T14:36:03.079Z,96765.21
2019-05-19T14:38:31.376Z,96758.22
2019-05-19T14:40:59.714Z,96759.62
2019-05-19T14:43:32.924Z,96758.31
2019-05-19T14:46:01.305Z,96761.04
2019-05-19T14:48:29.629Z,96766.78
2019-05-19T14:50:57.944Z,96769.30
2019-05-19T14:53:26.363Z,96752.88
2019-05-19T14:55:54.667Z,96769.16
2019-05-19T14:58:23.059Z,96756.19
2019-05-19T15:00:51.361Z,96760.90
2019-05-19T15:03:19.656Z,96755.25
2019-05-19T15:05:48.352Z,96767.75
2019-05-19T15:08:16.716Z,96761.92
2019-05-19T15:10:45.076Z,96759.42
2019-05-19T15:13:13.374Z,96756.48
2019-05-19T15:15:41.691Z,96761.59
2019-05-19T15:18:10.057Z,96747.94
2019-05-19T15:20:38.548Z,96770.83
2019-05-19T15:23:06.919Z,96752.16
2019-05-19T15:25:35.245Z,96747.30
2019-05-19T15:28:05.438Z,96742.98
2019-05-19T15:30:33.586Z,96742.27
2019-05-19T15:33:02.165Z,96737.45
2019-05-19T15:35:31.033Z,96737.58
2019-05-19T15:37:59.449Z,96739.73
2019-05-19T15:40:27.764Z,96732.64
2019-05-19T15:42:56.080Z,96733.12
2019-05-19T15:45:24.447Z,96737.98
2019-05-19T15:47:52.745Z,96739.09
2019-05-19T15:50:21.249Z,96743.22
2019-05-19T15:52:49.549Z,96739.36
2019-05-19T15:55:18.026Z,96737.80
2019-05-19T15:57:46.321Z,96736.26
2019-05-19T16:00:15.034Z,96732.48
2019-05-19T16:02:43.309Z,96731.57
2019-05-19T16:05:12.872Z,96728.19
2019-05-19T16:07:41.181Z,96727.16
2019-05-19T16:10:10.051Z,96727.89
2019-05-19T16:12:38.715Z,96720.12
2019-05-19T16:15:08.598Z,96721.73
2019-05-19T16:17:36.986Z,96717.81
2019-05-19T16:20:09.049Z,96704.02
2019-05-19T16:22:37.536Z,96710.40
2019-05-19T16:25:07.931Z,96714.98
2019-05-19T16:27:36.270Z,96705.46
2019-05-19T16:30:09.009Z,96711.46
2019-05-19T16:32:37.694Z,96689.91
2019-05-19T16:35:06.952Z,96711.69
2019-05-19T16:37:35.337Z,96712.77
2019-05-19T16:40:04.709Z,96715.33
2019-05-19T16:42:33.009Z,96713.66
2019-05-19T16:45:01.336Z,96719.30
2019-05-19T16:47:29.612Z,96720.55
2019-05-19T16:49:57.925Z,96715.55
2019-05-19T16:52:26.590Z,96704.66
2019-05-19T16:55:12.823Z,96707.05
2019-05-19T16:57:41.120Z,96711.21
2019-05-19T17:00:09.511Z,96705.27
2019-05-19T17:02:37.819Z,96700.14
2019-05-19T17:05:07.263Z,96701.19
2019-05-19T17:07:35.568Z,96700.27
2019-05-19T17:10:05.224Z,96697.92
2019-05-19T17:12:33.578Z,96700.64
2019-05-19T17:15:02.631Z,96700.73
2019-05-19T17:17:31.114Z,96701.59
2019-05-19T17:19:59.436Z,96703.72
2019-05-19T17:22:27.760Z,96703.70
2019-05-19T17:24:56.050Z,96703.30
2019-05-19T17:27:24.712Z,96708.22
2019-05-19T17:29:53.017Z,96710.91
2019-05-19T17:32:21.374Z,96709.23
2019-05-19T17:34:49.759Z,96706.38
2019-05-19T17:37:18.060Z,96704.44
2019-05-19T17:39:46.382Z,96706.30
2019-05-19T17:42:14.683Z,96709.84
2019-05-19T17:44:43.201Z,96710.13
2019-05-19T17:47:11.576Z,96710.97
2019-05-19T17:49:40.017Z,96714.98
2019-05-19T17:52:08.540Z,96706.19
2019-05-19T17:54:36.872Z,96709.57
2019-05-19T17:57:05.201Z,96710.47
2019-05-19T17:59:33.856Z,96703.26
2019-05-19T18:02:02.172Z,96711.94
2019-05-19T18:04:30.466Z,96706.33
2019-05-19T18:06:58.792Z,96706.95
2019-05-19T18:09:27.512Z,96708.96
2019-05-19T18:11:55.836Z,96707.34
2019-05-19T18:14:24.479Z,96707.66
2019-05-19T18:16:52.814Z,96704.62
2019-05-19T18:19:21.110Z,96697.89
2019-05-19T18:21:49.423Z,96693.03
2019-05-19T18:24:18.722Z,96698.66
2019-05-19T18:26:47.058Z,96696.59
2019-05-19T18:29:15.359Z,96705.05
2019-05-19T18:31:43.664Z,96702.83
2019-05-19T18:34:11.984Z,96700.98
2019-05-19T18:36:40.316Z,96705.08
2019-05-19T18:39:08.777Z,96705.09
2019-05-19T18:41:37.076Z,96704.99
2019-05-19T18:44:05.478Z,96709.89
2019-05-19T18:46:34.159Z,96701.71
2019-05-19T18:49:02.494Z,96709.52
2019-05-19T18:51:30.870Z,96709.50
2019-05-19T18:53:59.275Z,96714.77
2019-05-19T18:56:27.996Z,96709.18
2019-05-19T18:58:56.314Z,96710.12
2019-05-19T19:01:24.638Z,96719.69
2019-05-19T19:03:53.285Z,96717.83
2019-05-19T19:06:22.033Z,96722.66
2019-05-19T19:08:50.340Z,96717.78
2019-05-19T19:11:18.755Z,96719.23
2019-05-19T19:13:47.053Z,96716.80
2019-05-19T19:16:15.661Z,96724.94
2019-05-19T19:18:44.050Z,96725.25
2019-05-19T19:21:12.732Z,96725.80
2019-05-19T19:23:41.135Z,96723.84
2019-05-19T19:26:09.507Z,96722.67
2019-05-19T19:28:37.985Z,96713.81
2019-05-19T19:31:06.354Z,96715.44
2019-05-19T19:33:34.657Z,96713.02
2019-05-19T19:36:03.038Z,96718.43
2019-05-19T19:38:31.354Z,96721.05
2019-05-19T19:40:59.733Z,96717.05
2019-05-19T19:43:28.038Z,96719.12
2019-05-19T19:45:56.378Z,96712.20
2019-05-19T19:48:24.680Z,96712.19
2019-05-19T19:50:53.088Z,96709.69
2019-05-19T19:53:21.392Z,96711.33
2019-05-19T19:55:49.769Z,96701.85
2019-05-19T19:58:18.213Z,96705.59
2019-05-19T20:00:46.738Z,96709.48
2019-05-19T20:03:15.430Z,96707.86
2019-05-19T20:05:44.695Z,96705.63
2019-05-19T20:08:13.242Z,96706.40
2019-05-19T20:10:41.565Z,96701.08
2019-05-19T20:13:10.051Z,96700.69
2019-05-19T20:15:38.404Z,96696.12
2019-05-19T20:18:06.813Z,96694.39
2019-05-19T20:20:35.275Z,96690.41
2019-05-19T20:23:03.738Z,96683.97
2019-05-19T20:25:32.346Z,96680.64
2019-05-19T20:28:00.640Z,96685.79
2019-05-19T20:30:35.638Z,96683.42
2019-05-19T20:32:59.054Z,96680.36
2019-05-19T20:35:27.456Z,96679.34
2019-05-19T20:37:55.755Z,96679.60
2019-05-19T20:40:24.136Z,96679.53
2019-05-19T20:42:52.701Z,96674.77
2019-05-19T20:45:21.399Z,96689.40
2019-05-19T20:47:49.787Z,96702.66
2019-05-19T20:50:18.189Z,96700.79
2019-05-19T20:52:46.518Z,96703.84
2019-05-19T20:55:14.894Z,96701.47
2019-05-19T20:57:43.216Z,96699.98
2019-05-19T21:00:11.735Z,96712.02
2019-05-19T21:02:40.133Z,96713.22
2019-05-19T21:05:08.506Z,96708.63
2019-05-19T21:07:37.110Z,96702.91
2019-05-19T21:10:08.848Z,96697.23
2019-05-19T21:12:37.168Z,96710.83
2019-05-19T21:15:09.152Z,96712.83
2019-05-19T21:17:37.442Z,96712.67
2019-05-19T21:20:09.649Z,96705.94
2019-05-19T21:22:37.946Z,96713.33
2019-05-19T21:25:07.551Z,96720.92
2019-05-19T21:27:35.829Z,96719.53
2019-05-19T21:30:06.188Z,96719.34
2019-05-19T21:32:34.498Z,96723.95
2019-05-19T21:35:02.987Z,96721.75
2019-05-19T21:37:31.333Z,96727.95
2019-05-19T21:39:59.700Z,96728.09
2019-05-19T21:42:27.962Z,96733.61
2019-05-19T21:44:56.336Z,96733.36
2019-05-19T21:47:24.797Z,96734.55
2019-05-19T21:49:53.155Z,96741.63
2019-05-19T21:52:21.655Z,96742.94
2019-05-19T21:54:49.973Z,96746.58
2019-05-19T21:57:19.940Z,96744.80
2019-05-19T21:59:48.238Z,96747.42
2019-05-19T22:02:17.204Z,96752.95
2019-05-19T22:04:45.517Z,96753.48
2019-05-19T22:07:27.479Z,96750.86
2019-05-19T22:09:55.798Z,96751.23
2019-05-19T22:12:24.100Z,96748.30
2019-05-19T22:14:52.421Z,96746.50
2019-05-19T22:17:20.826Z,96746.22
2019-05-19T22:19:49.147Z,96745.17
2019-05-19T22:22:17.577Z,96753.31
2019-05-19T22:24:45.901Z,96747.30
2019-05-19T22:27:14.203Z,96744.75
2019-05-19T22:29:42.534Z,96745.08
2019-05-19T22:32:10.826Z,96745.19
2019-05-19T22:34:39.131Z,96746.02
2019-05-19T22:37:07.769Z,96746.47
2019-05-19T22:39:36.132Z,96734.93
2019-05-19T22:42:05.039Z,96736.97
2019-05-19T22:44:33.828Z,96730.65
2019-05-19T22:47:02.207Z,96731.30
2019-05-19T22:49:30.795Z,96731.81
2019-05-19T22:51:59.099Z,96739.84
2019-05-19T22:54:27.424Z,96737.05
2019-05-19T22:56:55.728Z,96737.94
2019-05-19T22:59:24.050Z,96738.32
2019-05-19T23:01:52.421Z,96741.70
2019-05-19T23:04:21.192Z,96731.00
2019-05-19T23:06:49.488Z,96725.97
2019-05-19T23:09:17.822Z,96726.38
2019-05-19T23:11:46.333Z,96719.28
2019-05-19T23:14:14.696Z,96728.19
2019-05-19T23:16:43.093Z,96718.93
2019-05-19T23:19:11.666Z,96714.16
2019-05-19T23:21:39.982Z,96711.22
2019-05-19T23:24:08.358Z,96712.00
2019-05-19T23:26:36.686Z,96715.11
2019-05-19T23:29:05.059Z,96719.23
2019-05-19T23:31:33.694Z,96718.41
2019-05-19T23:34:01.991Z,96713.97
2019-05-19T23:36:30.486Z,96718.09
2019-05-19T23:38:58.827Z,96713.44
2019-05-19T23:41:27.112Z,96716.03
2019-05-19T23:43:55.436Z,96712.80
2019-05-19T23:46:23.735Z,96706.40
2019-05-19T23:48:52.085Z,96709.77
2019-05-19T23:51:20.400Z,96705.91
2019-05-19T23:53:48.728Z,96708.37
2019-05-19T23:56:17.095Z,96714.91
2019-05-19T23:58:45.423Z,96710.20
